Time,TemperatureF,DewpointF,PressureIn,WindDirection,WindDirectionDegrees,WindSpeedMPH,WindSpeedGustMPH,Humidity,HourlyPrecipIn,Conditions,Clouds,dailyrainin,SolarRadiationWatts/m^2,SoftwareType,DateUTC
2013-05-30 00:02:00,75.0,71.0,-100.00,SE,137,4.0,9.0,86,0.00,,,0.05,0.000000,,2013-05-30 05:02:00,
2013-05-30 00:12:00,75.0,71.0,-100.00,SE,137,4.0,9.0,86,0.00,,,0.05,0.000000,,2013-05-30 05:12:00,
2013-05-30 00:22:00,75.0,71.0,-100.00,SE,137,4.0,9.0,86,0.00,,,0.05,0.000000,,2013-05-30 05:22:00,
2013-05-30 00:32:00,75.0,71.0,-100.00,SE,130,4.0,7.0,87,0.00,,,-99.99,0.000000,,2013-05-30 05:32:00,
2013-05-30 00:52:00,75.0,71.0,-100.00,SE,130,4.0,7.0,87,0.00,,,-99.99,0.000000,,2013-05-30 05:52:00,
2013-05-30 01:01:00,75.0,71.0,-100.00,SE,130,4.0,7.0,87,0.00,,,-99.99,0.000000,,2013-05-30 06:01:00,
2013-05-30 01:12:00,75.0,71.0,-100.00,SE,130,4.0,7.0,87,0.00,,,-99.99,0.000000,,2013-05-30 06:12:00,
2013-05-30 01:22:00,75.0,71.0,-100.00,SE,130,4.0,7.0,87,0.00,,,-99.99,0.000000,,2013-05-30 06:22:00,
2013-05-30 01:52:00,74.0,71.0,-100.00,SE,129,3.0,5.0,89,0.00,,,0.05,0.000000,,2013-05-30 06:52:00,
2013-05-30 02:01:00,74.0,71.0,-100.00,SE,129,3.0,5.0,89,0.00,,,0.05,0.000000,,2013-05-30 07:01:00,
2013-05-30 02:12:00,74.0,71.0,-100.00,SE,129,3.0,5.0,89,0.00,,,0.05,0.000000,,2013-05-30 07:12:00,
2013-05-30 02:22:00,74.0,71.0,-100.00,SE,129,3.0,5.0,89,0.00,,,0.05,0.000000,,2013-05-30 07:22:00,
2013-05-30 02:31:00,74.0,71.0,-100.00,SE,129,3.0,5.0,89,0.00,,,0.05,0.000000,,2013-05-30 07:31:00,
2013-05-30 02:32:00,73.0,70.0,-100.00,SE,146,3.0,8.0,90,0.00,,,0.05,0.000000,,2013-05-30 07:32:00,
2013-05-30 02:52:00,73.0,70.0,-100.00,SE,146,3.0,8.0,90,0.00,,,0.05,0.000000,,2013-05-30 07:52:00,
2013-05-30 03:02:00,73.0,70.0,-100.00,SE,146,3.0,8.0,90,0.00,,,0.05,0.000000,,2013-05-30 08:02:00,
2013-05-30 03:11:00,73.0,70.0,-100.00,SE,146,3.0,8.0,90,0.00,,,0.05,0.000000,,2013-05-30 08:11:00,
2013-05-30 03:21:00,73.0,70.0,-100.00,SE,146,3.0,8.0,90,0.00,,,0.05,0.000000,,2013-05-30 08:21:00,
2013-05-30 03:32:00,73.0,70.0,-100.00,SSE,162,5.0,10.0,90,0.00,,,0.05,0.000000,,2013-05-30 08:32:00,
2013-05-30 03:53:00,73.0,70.0,-100.00,SSE,162,5.0,10.0,90,0.00,,,0.05,0.000000,,2013-05-30 08:53:00,
2013-05-30 04:01:00,73.0,70.0,-100.00,SSE,162,5.0,10.0,90,0.00,,,0.05,0.000000,,2013-05-30 09:01:00,
2013-05-30 04:11:00,73.0,70.0,-100.00,SSE,162,5.0,10.0,90,0.00,,,0.05,0.000000,,2013-05-30 09:11:00,
2013-05-30 04:21:00,73.0,70.0,-100.00,SSE,162,5.0,10.0,90,0.00,,,0.05,0.000000,,2013-05-30 09:21:00,
2013-05-30 04:32:00,73.0,70.0,-100.00,SSE,166,6.0,11.0,90,0.00,,,0.05,0.000000,,2013-05-30 09:32:00,
2013-05-30 04:53:00,73.0,70.0,-100.00,SSE,166,6.0,11.0,90,0.00,,,0.05,0.000000,,2013-05-30 09:53:00,
2013-05-30 05:03:00,73.0,70.0,-100.00,SSE,166,6.0,11.0,90,0.00,,,0.05,0.000000,,2013-05-30 10:03:00,
2013-05-30 05:13:00,73.0,70.0,-100.00,SSE,166,6.0,11.0,90,0.00,,,0.05,0.000000,,2013-05-30 10:13:00,
2013-05-30 05:23:00,73.0,70.0,-100.00,SSE,166,6.0,11.0,90,0.00,,,0.05,0.000000,,2013-05-30 10:23:00,
2013-05-30 05:32:00,74.0,71.0,-100.00,South,179,5.0,11.0,89,0.00,,,0.05,0.000000,,2013-05-30 10:32:00,
2013-05-30 05:52:00,74.0,71.0,-100.00,South,179,5.0,11.0,89,0.00,,,0.05,0.000000,,2013-05-30 10:52:00,
2013-05-30 06:03:00,74.0,71.0,-100.00,South,179,5.0,11.0,89,0.00,,,0.05,0.000000,,2013-05-30 11:03:00,
2013-05-30 06:12:00,74.0,71.0,-100.00,South,179,5.0,11.0,89,0.00,,,0.05,0.000000,,2013-05-30 11:12:00,
2013-05-30 06:22:00,74.0,71.0,-100.00,South,179,5.0,11.0,89,0.00,,,0.05,0.000000,,2013-05-30 11:22:00,
2013-05-30 06:32:00,74.0,70.0,-100.00,SSE,154,5.0,11.0,88,0.00,,,0.05,2.000000,,2013-05-30 11:32:00,
2013-05-30 06:52:00,74.0,70.0,-100.00,SSE,154,5.0,11.0,88,0.00,,,0.05,2.000000,,2013-05-30 11:52:00,
2013-05-30 07:01:00,74.0,70.0,-100.00,SSE,154,5.0,11.0,88,0.00,,,0.05,2.000000,,2013-05-30 12:01:00,
2013-05-30 07:11:00,74.0,70.0,-100.00,SSE,154,5.0,11.0,88,0.00,,,0.05,2.000000,,2013-05-30 12:11:00,
2013-05-30 07:22:00,74.0,70.0,-100.00,SSE,154,5.0,11.0,88,0.00,,,0.05,2.000000,,2013-05-30 12:22:00,
2013-05-30 07:32:00,75.0,71.0,-100.00,SSE,150,4.0,9.0,86,0.00,,,0.05,38.000000,,2013-05-30 12:32:00,
2013-05-30 07:52:00,75.0,71.0,-100.00,SSE,150,4.0,9.0,86,0.00,,,0.05,38.000000,,2013-05-30 12:52:00,
2013-05-30 08:01:00,75.0,71.0,-100.00,SSE,150,4.0,9.0,86,0.00,,,0.05,38.000000,,2013-05-30 13:01:00,
2013-05-30 08:11:00,75.0,71.0,-100.00,SSE,150,4.0,9.0,86,0.00,,,0.05,38.000000,,2013-05-30 13:11:00,
2013-05-30 08:22:00,75.0,71.0,-100.00,SSE,150,4.0,9.0,86,0.00,,,0.05,38.000000,,2013-05-30 13:22:00,
2013-05-30 08:32:00,77.0,71.0,-100.00,SSE,154,4.0,13.0,82,0.00,,,0.05,125.000000,,2013-05-30 13:32:00,
2013-05-30 08:52:00,77.0,71.0,-100.00,SSE,154,4.0,13.0,82,0.00,,,0.05,125.000000,,2013-05-30 13:52:00,
2013-05-30 09:01:00,77.0,71.0,-100.00,SSE,154,4.0,13.0,82,0.00,,,0.05,125.000000,,2013-05-30 14:01:00,
2013-05-30 09:11:00,77.0,71.0,-100.00,SSE,154,4.0,13.0,82,0.00,,,0.05,125.000000,,2013-05-30 14:11:00,
2013-05-30 09:22:00,77.0,71.0,-100.00,SSE,154,4.0,13.0,82,0.00,,,0.05,125.000000,,2013-05-30 14:22:00,
2013-05-30 09:32:00,79.0,70.0,-100.00,SSE,151,6.0,14.0,75,0.00,,,0.05,275.000000,,2013-05-30 14:32:00,
2013-05-30 09:52:00,79.0,70.0,-100.00,SSE,151,6.0,14.0,75,0.00,,,0.05,275.000000,,2013-05-30 14:52:00,
2013-05-30 10:01:00,79.0,70.0,-100.00,SSE,151,6.0,14.0,75,0.00,,,0.05,275.000000,,2013-05-30 15:01:00,
2013-05-30 10:11:00,79.0,70.0,-100.00,SSE,151,6.0,14.0,75,0.00,,,0.05,275.000000,,2013-05-30 15:11:00,
2013-05-30 10:22:00,79.0,70.0,-100.00,SSE,151,6.0,14.0,75,0.00,,,0.05,275.000000,,2013-05-30 15:22:00,
2013-05-30 10:32:00,83.0,70.0,-100.00,SSE,152,8.0,17.0,65,0.00,,,0.05,679.000000,,2013-05-30 15:32:00,
2013-05-30 10:53:00,83.0,70.0,-100.00,SSE,152,8.0,17.0,65,0.00,,,0.05,679.000000,,2013-05-30 15:53:00,
2013-05-30 11:03:00,83.0,70.0,-100.00,SSE,152,8.0,17.0,65,0.00,,,0.05,679.000000,,2013-05-30 16:03:00,
2013-05-30 11:12:00,83.0,70.0,-100.00,SSE,152,8.0,17.0,65,0.00,,,0.05,679.000000,,2013-05-30 16:12:00,
2013-05-30 11:23:00,83.0,70.0,-100.00,SSE,152,8.0,17.0,65,0.00,,,0.05,679.000000,,2013-05-30 16:23:00,
2013-05-30 11:32:00,85.0,69.0,-100.00,South,175,9.0,19.0,59,0.00,,,0.05,653.000000,,2013-05-30 16:32:00,
2013-05-30 11:53:00,85.0,69.0,-100.00,South,175,9.0,19.0,59,0.00,,,0.05,653.000000,,2013-05-30 16:53:00,
2013-05-30 12:02:00,85.0,69.0,-100.00,South,175,9.0,19.0,59,0.00,,,0.05,653.000000,,2013-05-30 17:02:00,
2013-05-30 12:12:00,85.0,69.0,-100.00,South,175,9.0,19.0,59,0.00,,,0.05,653.000000,,2013-05-30 17:12:00,
2013-05-30 12:22:00,85.0,69.0,-100.00,South,175,9.0,19.0,59,0.00,,,0.05,653.000000,,2013-05-30 17:22:00,
2013-05-30 12:32:00,86.0,68.0,-100.00,SSE,157,10.0,18.0,56,0.00,,,0.05,833.000000,,2013-05-30 17:32:00,
2013-05-30 12:52:00,86.0,68.0,-100.00,SSE,157,10.0,18.0,56,0.00,,,0.05,833.000000,,2013-05-30 17:52:00,
2013-05-30 13:02:00,86.0,68.0,-100.00,SSE,157,10.0,18.0,56,0.00,,,0.05,833.000000,,2013-05-30 18:02:00,
2013-05-30 13:11:00,86.0,68.0,-100.00,SSE,157,10.0,18.0,56,0.00,,,0.05,833.000000,,2013-05-30 18:11:00,
2013-05-30 13:22:00,86.0,68.0,-100.00,SSE,157,10.0,18.0,56,0.00,,,0.05,833.000000,,2013-05-30 18:22:00,
2013-05-30 13:32:00,85.0,73.0,-100.00,South,170,6.0,18.0,68,0.07,,,0.12,633.000000,,2013-05-30 18:32:00,
2013-05-30 13:52:00,85.0,73.0,-100.00,South,170,6.0,18.0,68,0.07,,,0.12,633.000000,,2013-05-30 18:52:00,
2013-05-30 14:01:00,85.0,73.0,-100.00,South,170,6.0,18.0,68,0.07,,,0.12,633.000000,,2013-05-30 19:01:00,
2013-05-30 14:12:00,85.0,73.0,-100.00,South,170,6.0,18.0,68,0.07,,,0.12,633.000000,,2013-05-30 19:12:00,
2013-05-30 14:23:00,85.0,73.0,-100.00,South,170,6.0,18.0,68,0.07,,,0.12,633.000000,,2013-05-30 19:23:00,
2013-05-30 14:32:00,87.0,70.0,-100.00,SSE,154,7.0,15.0,58,0.00,,,0.12,875.000000,,2013-05-30 19:32:00,
2013-05-30 14:53:00,87.0,70.0,-100.00,SSE,154,7.0,15.0,58,0.00,,,0.12,875.000000,,2013-05-30 19:53:00,
2013-05-30 15:01:00,87.0,70.0,-100.00,SSE,154,7.0,15.0,58,0.00,,,0.12,875.000000,,2013-05-30 20:01:00,
2013-05-30 15:11:00,87.0,70.0,-100.00,SSE,154,7.0,15.0,58,0.00,,,0.12,875.000000,,2013-05-30 20:11:00,
2013-05-30 15:22:00,87.0,70.0,-100.00,SSE,154,7.0,15.0,58,0.00,,,0.12,875.000000,,2013-05-30 20:22:00,
2013-05-30 15:32:00,86.0,70.0,-100.00,SSE,153,6.0,16.0,59,0.00,,,0.12,587.000000,,2013-05-30 20:32:00,
2013-05-30 15:52:00,86.0,70.0,-100.00,SSE,153,6.0,16.0,59,0.00,,,0.12,587.000000,,2013-05-30 20:52:00,
2013-05-30 16:01:00,86.0,70.0,-100.00,SSE,153,6.0,16.0,59,0.00,,,0.12,587.000000,,2013-05-30 21:01:00,
2013-05-30 16:11:00,86.0,70.0,-100.00,SSE,153,6.0,16.0,59,0.00,,,0.12,587.000000,,2013-05-30 21:11:00,
2013-05-30 16:22:00,86.0,70.0,-100.00,SSE,153,6.0,16.0,59,0.00,,,0.12,587.000000,,2013-05-30 21:22:00,
2013-05-30 16:32:00,84.0,74.0,-100.00,SSE,150,4.0,24.0,72,0.12,,,0.24,684.000000,,2013-05-30 21:32:00,
2013-05-30 16:53:00,84.0,74.0,-100.00,SSE,150,4.0,24.0,72,0.12,,,0.24,684.000000,,2013-05-30 21:53:00,
2013-05-30 17:02:00,84.0,74.0,-100.00,SSE,150,4.0,24.0,72,0.12,,,0.24,684.000000,,2013-05-30 22:02:00,
2013-05-30 17:12:00,84.0,74.0,-100.00,SSE,150,4.0,24.0,72,0.12,,,0.24,684.000000,,2013-05-30 22:12:00,
2013-05-30 17:23:00,84.0,74.0,-100.00,SSE,150,4.0,24.0,72,0.12,,,0.24,684.000000,,2013-05-30 22:23:00,
2013-05-30 17:32:00,81.0,72.0,-100.00,SSE,154,6.0,11.0,73,0.03,,,0.27,378.000000,,2013-05-30 22:32:00,
2013-05-30 17:52:00,81.0,72.0,-100.00,SSE,154,6.0,11.0,73,0.03,,,0.27,378.000000,,2013-05-30 22:52:00,
2013-05-30 18:02:00,81.0,72.0,-100.00,SSE,154,6.0,11.0,73,0.03,,,0.27,378.000000,,2013-05-30 23:02:00,
2013-05-30 18:11:00,81.0,72.0,-100.00,SSE,154,6.0,11.0,73,0.03,,,0.27,378.000000,,2013-05-30 23:11:00,
2013-05-30 18:22:00,81.0,72.0,-100.00,SSE,154,6.0,11.0,73,0.03,,,0.27,378.000000,,2013-05-30 23:22:00,
2013-05-30 18:32:00,83.0,73.0,-100.00,South,191,3.0,9.0,72,0.00,,,0.27,173.000000,,2013-05-30 23:32:00,
2013-05-30 18:52:00,83.0,73.0,-100.00,South,191,3.0,9.0,72,0.00,,,0.27,173.000000,,2013-05-30 23:52:00,
2013-05-30 19:01:00,83.0,73.0,-100.00,South,191,3.0,9.0,72,0.00,,,0.27,173.000000,,2013-05-31 00:01:00,
2013-05-30 19:11:00,83.0,73.0,-100.00,South,191,3.0,9.0,72,0.00,,,0.27,173.000000,,2013-05-31 00:11:00,
2013-05-30 19:22:00,83.0,73.0,-100.00,South,191,3.0,9.0,72,0.00,,,0.27,173.000000,,2013-05-31 00:22:00,
2013-05-30 19:32:00,82.0,70.0,-100.00,South,184,5.0,11.0,67,0.00,,,-99.99,117.000000,,2013-05-31 00:32:00,
2013-05-30 19:52:00,82.0,70.0,-100.00,South,184,5.0,11.0,67,0.00,,,-99.99,117.000000,,2013-05-31 00:52:00,
2013-05-30 20:01:00,82.0,70.0,-100.00,South,184,5.0,11.0,67,0.00,,,-99.99,117.000000,,2013-05-31 01:01:00,
2013-05-30 20:12:00,82.0,70.0,-100.00,South,184,5.0,11.0,67,0.00,,,-99.99,117.000000,,2013-05-31 01:12:00,
2013-05-30 20:21:00,82.0,70.0,-100.00,South,184,5.0,11.0,67,0.00,,,-99.99,117.000000,,2013-05-31 01:21:00,
2013-05-30 20:32:00,80.0,69.0,-100.00,South,179,4.0,9.0,69,0.00,,,0.24,13.000000,,2013-05-31 01:32:00,
2013-05-30 20:52:00,80.0,69.0,-100.00,South,179,4.0,9.0,69,0.00,,,0.24,13.000000,,2013-05-31 01:52:00,
2013-05-30 21:02:00,80.0,69.0,-100.00,South,179,4.0,9.0,69,0.00,,,0.24,13.000000,,2013-05-31 02:02:00,
2013-05-30 21:11:00,80.0,69.0,-100.00,South,179,4.0,9.0,69,0.00,,,0.24,13.000000,,2013-05-31 02:11:00,
2013-05-30 21:22:00,80.0,69.0,-100.00,South,179,4.0,9.0,69,0.00,,,0.24,13.000000,,2013-05-31 02:22:00,
2013-05-30 21:32:00,78.0,69.0,-100.00,SE,144,1.0,8.0,74,0.00,,,0.24,0.000000,,2013-05-31 02:32:00,
2013-05-30 21:52:00,78.0,69.0,-100.00,SE,144,1.0,8.0,74,0.00,,,0.24,0.000000,,2013-05-31 02:52:00,
2013-05-30 22:01:00,78.0,69.0,-100.00,SE,144,1.0,8.0,74,0.00,,,0.24,0.000000,,2013-05-31 03:01:00,
2013-05-30 22:11:00,78.0,69.0,-100.00,SE,144,1.0,8.0,74,0.00,,,0.24,0.000000,,2013-05-31 03:11:00,
2013-05-30 22:21:00,78.0,69.0,-100.00,SE,144,1.0,8.0,74,0.00,,,0.24,0.000000,,2013-05-31 03:21:00,
2013-05-30 22:32:00,77.0,69.0,-100.00,South,187,3.0,5.0,77,0.00,,,0.22,0.000000,,2013-05-31 03:32:00,
2013-05-30 22:53:00,77.0,69.0,-100.00,South,187,3.0,5.0,77,0.00,,,0.22,0.000000,,2013-05-31 03:53:00,
2013-05-30 23:02:00,77.0,69.0,-100.00,South,187,3.0,5.0,77,0.00,,,0.22,0.000000,,2013-05-31 04:02:00,
2013-05-30 23:12:00,77.0,69.0,-100.00,South,187,3.0,5.0,77,0.00,,,0.22,0.000000,,2013-05-31 04:12:00,
2013-05-30 23:22:00,77.0,69.0,-100.00,South,187,3.0,5.0,77,0.00,,,0.22,0.000000,,2013-05-31 04:22:00,
2013-05-30 23:32:00,76.0,68.0,-100.00,South,174,4.0,7.0,77,0.00,,,0.22,0.000000,,2013-05-31 04:32:00,
2013-05-30 23:53:00,76.0,68.0,-100.00,South,174,4.0,7.0,77,0.00,,,0.22,0.000000,,2013-05-31 04:53:00,